createdAt,value
2022-09-12T00:00:11.110Z,25.08
2022-09-12T00:03:37.626Z,25.08
2022-09-12T00:06:39.782Z,24.98
2022-09-12T00:09:42.497Z,24.89
2022-09-12T00:12:45.033Z,24.79
2022-09-12T00:15:47.343Z,24.76
2022-09-12T00:18:50.376Z,24.67
2022-09-12T00:21:53.140Z,24.62
2022-09-12T00:24:55.927Z,24.61
2022-09-12T00:27:57.928Z,24.57
2022-09-12T00:31:00.649Z,24.50
2022-09-12T00:34:02.775Z,24.45
2022-09-12T00:37:05.848Z,24.40
2022-09-12T00:40:08.187Z,24.35
2022-09-12T00:43:37.160Z,24.34
2022-09-12T00:46:44.093Z,24.35
2022-09-12T00:49:46.493Z,24.30
2022-09-12T00:53:03.007Z,24.25
2022-09-12T00:56:06.607Z,24.18
2022-09-12T00:59:15.581Z,24.20
2022-09-12T01:02:18.731Z,24.14
2022-09-12T01:05:22.575Z,24.11
2022-09-12T01:08:27.608Z,24.10
2022-09-12T01:11:32.031Z,24.10
2022-09-12T01:14:35.562Z,24.09
2022-09-12T01:18:00.606Z,24.04
2022-09-12T01:21:25.893Z,24.01
2022-09-12T01:24:33.581Z,23.99
2022-09-12T01:27:44.612Z,23.97
2022-09-12T01:30:56.327Z,23.93
2022-09-12T01:34:17.973Z,23.96
2022-09-12T01:37:34.423Z,23.93
2022-09-12T01:40:59.460Z,23.92
2022-09-12T01:44:21.007Z,23.90
2022-09-12T01:47:29.076Z,23.89
2022-09-12T01:50:39.086Z,23.89
2022-09-12T01:53:46.887Z,23.86
2022-09-12T01:56:53.339Z,23.83
2022-09-12T02:00:00.607Z,23.83
2022-09-12T02:03:10.440Z,23.80
2022-09-12T02:06:23.780Z,23.80
2022-09-12T02:09:55.608Z,23.79
2022-09-12T02:13:03.858Z,23.76
2022-09-12T02:16:11.927Z,23.73
2022-09-12T02:19:24.258Z,23.69
2022-09-12T02:22:29.996Z,23.69
2022-09-12T02:25:36.898Z,23.66
2022-09-12T02:28:43.046Z,23.66
2022-09-12T02:31:47.643Z,23.63
2022-09-12T02:34:52.993Z,23.67
2022-09-12T02:38:15.814Z,23.62
2022-09-12T02:41:20.824Z,23.63
2022-09-12T02:44:25.532Z,23.63
2022-09-12T02:47:47.851Z,23.63
2022-09-12T02:50:50.429Z,23.62
2022-09-12T02:53:54.057Z,23.59
2022-09-12T02:56:56.420Z,23.56
2022-09-12T03:00:01.059Z,23.57
2022-09-12T03:03:43.580Z,23.56
2022-09-12T03:06:57.949Z,23.57
2022-09-12T03:10:23.279Z,23.56
2022-09-12T03:13:49.269Z,23.52
2022-09-12T03:17:08.379Z,23.48
2022-09-12T03:20:16.113Z,23.50
2022-09-12T03:23:26.400Z,23.49
2022-09-12T03:26:36.602Z,23.48
2022-09-12T03:29:41.163Z,23.48
2022-09-12T03:32:46.267Z,23.49
2022-09-12T03:35:49.360Z,23.50
2022-09-12T03:38:51.797Z,23.50
2022-09-12T03:41:55.188Z,23.46
2022-09-12T03:44:57.358Z,23.49
2022-09-12T03:47:59.961Z,23.48
2022-09-12T03:51:07.776Z,23.46
2022-09-12T03:54:11.742Z,23.46
2022-09-12T03:57:13.724Z,23.43
2022-09-12T04:00:19.854Z,23.42
2022-09-12T04:03:22.106Z,23.43
2022-09-12T04:06:24.580Z,23.42
2022-09-12T04:09:26.622Z,23.38
2022-09-12T04:12:30.084Z,23.38
2022-09-12T04:15:32.545Z,23.32
2022-09-12T04:18:35.584Z,23.36
2022-09-12T04:21:37.913Z,23.30
2022-09-12T04:24:40.714Z,23.29
2022-09-12T04:27:42.956Z,23.30
2022-09-12T04:30:46.044Z,23.30
2022-09-12T04:33:49.111Z,23.30
2022-09-12T04:36:51.710Z,23.29
2022-09-12T04:39:58.043Z,23.26
2022-09-12T04:43:00.597Z,23.26
2022-09-12T04:46:12.889Z,23.28
2022-09-12T04:49:19.586Z,23.26
2022-09-12T04:52:22.113Z,23.28
2022-09-12T04:55:25.730Z,23.23
2022-09-12T04:58:28.054Z,23.23
2022-09-12T05:01:31.412Z,23.25
2022-09-12T05:04:33.782Z,23.23
2022-09-12T05:07:36.288Z,23.22
2022-09-12T05:10:38.568Z,23.20
2022-09-12T05:13:41.299Z,23.22
2022-09-12T05:16:48.582Z,23.22
2022-09-12T05:19:51.620Z,23.23
2022-09-12T05:22:53.617Z,23.22
2022-09-12T05:25:57.919Z,23.23
2022-09-12T05:29:00.230Z,23.20
2022-09-12T05:32:04.126Z,23.22
2022-09-12T05:35:06.586Z,23.22
2022-09-12T05:38:09.647Z,23.22
2022-09-12T05:41:24.647Z,23.22
2022-09-12T05:44:28.515Z,23.23
2022-09-12T05:47:31.235Z,23.23
2022-09-12T05:50:34.926Z,23.23
2022-09-12T05:53:39.388Z,23.32
2022-09-12T05:56:44.144Z,23.39
2022-09-12T05:59:47.025Z,23.48
2022-09-12T06:02:56.391Z,23.43
2022-09-12T06:06:03.716Z,23.45
2022-09-12T06:09:07.514Z,23.50
2022-09-12T06:12:09.994Z,23.57
2022-09-12T06:15:12.451Z,23.59
2022-09-12T06:18:14.406Z,23.65
2022-09-12T06:21:17.124Z,23.69
2022-09-12T06:24:20.658Z,23.73
2022-09-12T06:27:22.914Z,23.77
2022-09-12T06:30:28.678Z,23.70
2022-09-12T06:33:34.166Z,23.63
2022-09-12T06:36:44.822Z,23.59
2022-09-12T06:39:49.023Z,23.53
2022-09-12T06:42:51.946Z,23.52
2022-09-12T06:46:09.859Z,23.65
2022-09-12T06:49:12.483Z,23.63
2022-09-12T06:52:15.954Z,23.59
2022-09-12T06:55:20.926Z,23.53
2022-09-12T06:58:26.266Z,23.53
2022-09-12T07:01:32.395Z,23.48
2022-09-12T07:04:36.933Z,23.52
2022-09-12T07:07:39.275Z,23.46
2022-09-12T07:10:42.134Z,23.50
2022-09-12T07:13:46.137Z,23.43
2022-09-12T07:16:48.499Z,23.46
2022-09-12T07:19:50.629Z,23.46
2022-09-12T07:22:52.925Z,23.45
2022-09-12T07:26:00.586Z,23.46
2022-09-12T07:29:25.491Z,23.43
2022-09-12T07:32:25.152Z,23.43
2022-09-12T07:35:27.485Z,23.48
2022-09-12T07:38:29.589Z,23.48
2022-09-12T07:41:34.102Z,23.49
2022-09-12T07:44:36.207Z,23.50
2022-09-12T07:47:38.852Z,23.50
2022-09-12T07:50:44.568Z,23.50
2022-09-12T07:53:49.417Z,23.45
2022-09-12T07:56:52.115Z,23.50
2022-09-12T07:59:54.903Z,23.59
2022-09-12T08:02:57.850Z,23.63
2022-09-12T08:06:08.239Z,23.70
2022-09-12T08:09:12.915Z,23.80
2022-09-12T08:12:16.111Z,23.86
2022-09-12T08:15:20.522Z,23.89
2022-09-12T08:18:23.338Z,23.93
2022-09-12T08:21:27.910Z,23.97
2022-09-12T08:24:30.422Z,24.01
2022-09-12T08:27:32.567Z,24.07
2022-09-12T08:30:34.866Z,24.10
2022-09-12T08:33:37.502Z,24.13
2022-09-12T08:36:41.148Z,24.17
2022-09-12T08:39:44.304Z,24.21
2022-09-12T08:43:10.479Z,24.21
2022-09-12T08:46:23.701Z,24.31
2022-09-12T08:49:57.766Z,24.41
2022-09-12T08:53:18.495Z,24.45
2022-09-12T08:56:21.551Z,24.48
2022-09-12T08:59:25.855Z,24.44
2022-09-12T09:02:37.477Z,24.51
2022-09-12T09:05:49.743Z,24.54
2022-09-12T09:09:07.345Z,24.52
2022-09-12T09:12:21.640Z,24.62
2022-09-12T09:15:25.019Z,24.61
2022-09-12T09:18:35.245Z,24.62
2022-09-12T09:21:53.130Z,24.74
2022-09-12T09:25:01.711Z,24.75
2022-09-12T09:28:16.353Z,24.78
2022-09-12T09:31:24.723Z,24.65
2022-09-12T09:34:31.661Z,24.60
2022-09-12T09:37:43.963Z,24.54
2022-09-12T09:40:51.856Z,24.51
2022-09-12T09:43:53.947Z,24.51
2022-09-12T09:46:58.760Z,24.50
2022-09-12T09:50:01.218Z,24.48
2022-09-12T09:53:05.791Z,24.45
2022-09-12T09:56:23.305Z,24.45
2022-09-12T09:59:37.045Z,24.44
2022-09-12T10:02:42.922Z,24.44
2022-09-12T10:05:50.676Z,24.44
2022-09-12T10:09:05.451Z,24.44
2022-09-12T10:12:28.816Z,24.44
2022-09-12T10:15:30.824Z,24.42
2022-09-12T10:18:42.519Z,24.42
2022-09-12T10:21:52.783Z,24.44
2022-09-12T10:25:12.251Z,24.40
2022-09-12T10:28:26.840Z,24.41
2022-09-12T10:31:44.088Z,24.40
2022-09-12T10:34:46.597Z,24.40
2022-09-12T10:38:02.601Z,24.42
2022-09-12T10:41:09.733Z,24.44
2022-09-12T10:44:18.578Z,24.42
2022-09-12T10:47:31.594Z,24.40
2022-09-12T10:50:41.745Z,24.42
2022-09-12T10:53:47.226Z,24.41
2022-09-12T10:57:04.890Z,24.42
2022-09-12T11:00:17.913Z,24.42
2022-09-12T11:03:50.573Z,24.41
2022-09-12T11:07:04.086Z,24.41
2022-09-12T11:10:37.366Z,24.41
2022-09-12T11:13:56.948Z,24.41
2022-09-12T11:17:04.453Z,24.52
2022-09-12T11:20:48.668Z,24.58
2022-09-12T11:24:09.846Z,24.67
2022-09-12T11:27:39.753Z,24.72
2022-09-12T11:30:52.369Z,24.79
2022-09-12T11:33:58.405Z,24.85
2022-09-12T11:37:35.337Z,24.88
2022-09-12T11:40:40.182Z,24.95
2022-09-12T11:43:52.251Z,24.95
2022-09-12T11:46:55.269Z,24.92
2022-09-12T11:50:00.236Z,24.88
2022-09-12T11:53:20.770Z,24.81
2022-09-12T11:56:23.403Z,24.81
2022-09-12T11:59:32.114Z,24.79
2022-09-12T12:03:10.729Z,24.82
2022-09-12T12:06:23.496Z,24.78
2022-09-12T12:09:27.080Z,24.78
2022-09-12T12:12:30.294Z,24.78
2022-09-12T12:15:36.450Z,24.75
2022-09-12T12:18:40.240Z,24.85
2022-09-12T12:21:47.823Z,24.93
2022-09-12T12:25:21.569Z,25.01
2022-09-12T12:28:58.899Z,25.06
2022-09-12T12:32:07.863Z,25.15
2022-09-12T12:35:36.643Z,25.20
2022-09-12T12:38:41.055Z,25.12
2022-09-12T12:41:44.634Z,25.09
2022-09-12T12:44:49.065Z,25.06
2022-09-12T12:47:58.384Z,25.03
2022-09-12T12:51:38.656Z,25.02
2022-09-12T12:54:41.433Z,25.01
2022-09-12T12:57:55.856Z,25.01
2022-09-12T13:01:15.976Z,24.95
2022-09-12T13:04:21.288Z,24.93
2022-09-12T13:07:37.344Z,24.92
2022-09-12T13:10:50.544Z,24.91
2022-09-12T13:14:32.338Z,24.88
2022-09-12T13:17:39.889Z,24.88
2022-09-12T13:21:10.474Z,24.89
2022-09-12T13:24:17.484Z,24.89
2022-09-12T13:27:25.926Z,24.89
2022-09-12T13:30:31.814Z,24.84
2022-09-12T13:33:40.294Z,24.84
2022-09-12T13:37:10.221Z,24.79
2022-09-12T13:40:12.442Z,24.85
2022-09-12T13:43:17.581Z,24.85
2022-09-12T13:46:35.063Z,24.85
2022-09-12T13:49:40.873Z,24.85
2022-09-12T13:52:47.996Z,24.81
2022-09-12T13:56:00.547Z,24.82
2022-09-12T13:59:03.510Z,24.85
2022-09-12T14:02:24.217Z,24.84
2022-09-12T14:05:26.885Z,24.93
2022-09-12T14:08:30.507Z,24.99
2022-09-12T14:11:34.450Z,25.05
2022-09-12T14:14:44.300Z,25.13
2022-09-12T14:17:53.263Z,25.18
2022-09-12T14:20:57.611Z,25.25
2022-09-12T14:24:04.896Z,25.27
2022-09-12T14:27:07.633Z,25.32
2022-09-12T14:30:32.028Z,25.35
2022-09-12T14:33:48.727Z,25.39
2022-09-12T14:36:56.435Z,25.39
2022-09-12T14:40:00.649Z,25.45
2022-09-12T14:43:03.674Z,25.45
2022-09-12T14:46:37.056Z,25.49
2022-09-12T14:49:40.839Z,25.51
2022-09-12T14:52:44.012Z,25.54
2022-09-12T14:55:56.408Z,25.57
2022-09-12T14:59:33.594Z,25.63
2022-09-12T15:02:36.228Z,25.66
2022-09-12T15:05:50.076Z,25.67
2022-09-12T15:08:55.581Z,25.67
2022-09-12T15:11:58.321Z,25.71
2022-09-12T15:15:21.692Z,25.71
2022-09-12T15:18:26.477Z,25.77
2022-09-12T15:21:28.833Z,25.77
2022-09-12T15:24:31.326Z,25.80
2022-09-12T15:27:34.324Z,25.83
2022-09-12T15:30:37.337Z,25.91
2022-09-12T15:33:41.380Z,25.86
2022-09-12T15:36:44.574Z,25.86
2022-09-12T15:39:48.997Z,25.84
2022-09-12T15:42:51.224Z,25.87
2022-09-12T15:45:57.805Z,25.87
2022-09-12T15:49:00.888Z,25.86
2022-09-12T15:52:04.325Z,25.83
2022-09-12T15:55:12.500Z,25.74
2022-09-12T15:58:15.118Z,25.67
2022-09-12T16:01:18.658Z,25.60
2022-09-12T16:04:24.213Z,25.50
2022-09-12T16:07:35.186Z,25.43
2022-09-12T16:10:38.036Z,25.43
2022-09-12T16:13:40.459Z,25.35
2022-09-12T16:16:43.589Z,25.32
2022-09-12T16:19:46.461Z,25.32
2022-09-12T16:22:50.587Z,25.27
2022-09-12T16:26:04.457Z,25.27
2022-09-12T16:29:07.717Z,25.22
2022-09-12T16:32:10.252Z,25.22
2022-09-12T16:35:13.688Z,25.18
2022-09-12T16:38:17.657Z,25.19
2022-09-12T16:41:30.782Z,25.15
2022-09-12T16:44:36.852Z,25.15
2022-09-12T16:47:39.618Z,25.09
2022-09-12T16:50:41.827Z,25.01
2022-09-12T16:54:01.652Z,24.98
2022-09-12T16:57:05.657Z,24.98
2022-09-12T17:00:10.168Z,24.99
2022-09-12T17:03:12.613Z,24.99
2022-09-12T17:06:18.664Z,24.93
2022-09-12T17:09:22.263Z,24.92
2022-09-12T17:12:24.775Z,24.89
2022-09-12T17:15:26.898Z,24.85
2022-09-12T17:18:29.423Z,24.85
2022-09-12T17:21:32.899Z,24.82
2022-09-12T17:24:35.985Z,24.78
2022-09-12T17:27:38.351Z,24.78
2022-09-12T17:31:00.545Z,24.72
2022-09-12T17:34:42.682Z,23.90
2022-09-12T17:38:25.401Z,23.20
2022-09-12T17:41:46.539Z,22.74
2022-09-12T17:44:50.051Z,22.60
2022-09-12T17:47:55.287Z,22.58
2022-09-12T17:51:10.506Z,22.84
2022-09-12T17:54:17.943Z,22.72
2022-09-12T17:57:24.155Z,22.71
2022-09-12T18:00:48.558Z,22.85
2022-09-12T18:03:56.347Z,23.05
2022-09-12T18:07:00.636Z,23.14
2022-09-12T18:10:04.141Z,23.19
2022-09-12T18:13:09.498Z,23.36
2022-09-12T18:16:13.859Z,23.49
2022-09-12T18:19:19.048Z,23.60
2022-09-12T18:22:22.106Z,23.65
2022-09-12T18:25:27.576Z,23.62
2022-09-12T18:28:33.131Z,23.67
2022-09-12T18:35:37.976Z,23.81
2022-09-12T18:39:02.209Z,23.90
2022-09-12T18:42:17.546Z,23.90
2022-09-12T18:45:28.036Z,23.92
2022-09-12T18:48:39.886Z,23.93
2022-09-12T18:51:42.728Z,23.94
2022-09-12T18:54:46.576Z,23.93
2022-09-12T18:57:54.496Z,23.99
2022-09-12T19:01:00.199Z,23.99
2022-09-12T19:04:06.925Z,24.01
2022-09-12T19:07:10.887Z,24.14
2022-09-12T19:10:14.350Z,24.24
2022-09-12T19:13:19.416Z,24.34
2022-09-12T19:16:24.994Z,24.40
2022-09-12T19:19:27.695Z,24.41
2022-09-12T19:22:29.959Z,24.45
2022-09-12T19:25:32.656Z,24.50
2022-09-12T19:28:35.521Z,24.55
2022-09-12T19:31:38.368Z,24.55
2022-09-12T19:34:40.483Z,24.55
2022-09-12T19:37:44.433Z,24.34
2022-09-12T19:40:59.333Z,24.35
2022-09-12T19:44:02.706Z,24.37
2022-09-12T19:47:05.077Z,24.38
2022-09-12T19:50:08.754Z,24.38
2022-09-12T19:53:11.631Z,24.38
2022-09-12T19:56:15.145Z,24.38
2022-09-12T19:59:18.588Z,24.37
2022-09-12T20:02:29.378Z,24.35
2022-09-12T20:05:42.620Z,24.35
2022-09-12T20:08:47.545Z,24.34
2022-09-12T20:11:50.869Z,24.32
2022-09-12T20:14:54.023Z,24.32
2022-09-12T20:17:57.794Z,24.31
2022-09-12T20:21:18.711Z,24.31
2022-09-12T20:24:21.422Z,24.31
2022-09-12T20:27:24.188Z,24.27
2022-09-12T20:30:28.704Z,24.27
2022-09-12T20:33:35.993Z,24.25
2022-09-12T20:36:39.718Z,24.27
2022-09-12T20:39:44.511Z,24.24
2022-09-12T20:42:52.465Z,24.25
2022-09-12T20:45:57.859Z,24.22
2022-09-12T20:49:00.123Z,24.21
2022-09-12T20:52:03.838Z,24.22
2022-09-12T20:55:06.813Z,24.20
2022-09-12T20:58:10.034Z,24.21
2022-09-12T21:01:15.093Z,24.18
2022-09-12T21:04:18.569Z,24.27
2022-09-12T21:07:26.002Z,24.32
2022-09-12T21:10:33.344Z,24.38
2022-09-12T21:13:36.772Z,24.42
2022-09-12T21:16:39.477Z,24.48
2022-09-12T21:19:43.913Z,24.52
2022-09-12T21:22:47.083Z,24.55
2022-09-12T21:25:52.698Z,24.60
2022-09-12T21:28:56.905Z,24.65
2022-09-12T21:32:02.134Z,24.67
2022-09-12T21:35:06.702Z,24.71
2022-09-12T21:38:09.516Z,24.74
2022-09-12T21:41:15.699Z,24.75
2022-09-12T21:44:18.287Z,24.75
2022-09-12T21:47:21.094Z,24.76
2022-09-12T21:50:24.046Z,24.79
2022-09-12T21:53:27.554Z,24.84
2022-09-12T21:56:29.670Z,24.84
2022-09-12T21:59:32.498Z,24.88
2022-09-12T22:02:34.739Z,24.91
2022-09-12T22:05:40.282Z,24.92
2022-09-12T22:08:42.494Z,24.92
2022-09-12T22:11:46.276Z,24.98
2022-09-12T22:14:48.787Z,24.98
2022-09-12T22:17:52.070Z,25.02
2022-09-12T22:21:02.017Z,25.05
2022-09-12T22:24:23.316Z,25.08
2022-09-12T22:27:25.939Z,25.03
2022-09-12T22:30:29.246Z,24.69
2022-09-12T22:33:31.249Z,24.75
2022-09-12T22:36:38.268Z,24.86
2022-09-12T22:39:41.262Z,24.92
2022-09-12T22:42:43.692Z,24.92
2022-09-12T22:45:45.723Z,24.88
2022-09-12T22:48:48.746Z,23.99
2022-09-12T22:51:51.007Z,23.71
2022-09-12T22:54:53.874Z,23.87
2022-09-12T22:57:56.554Z,24.06
2022-09-12T23:01:00.234Z,23.81
2022-09-12T23:04:05.641Z,23.59
2022-09-12T23:07:08.209Z,23.56
2022-09-12T23:10:10.949Z,23.36
2022-09-12T23:13:13.911Z,23.48
2022-09-12T23:16:20.910Z,23.39
2022-09-12T23:19:23.558Z,23.65
2022-09-12T23:22:25.811Z,23.84
2022-09-12T23:25:28.647Z,24.03
2022-09-12T23:28:30.900Z,24.13
2022-09-12T23:31:34.805Z,24.11
2022-09-12T23:34:36.862Z,24.04
2022-09-12T23:37:39.585Z,23.70
2022-09-12T23:40:41.884Z,23.41
2022-09-12T23:43:45.814Z,23.65
2022-09-12T23:46:48.260Z,22.53
2022-09-12T23:49:50.815Z,21.28
2022-09-12T23:52:52.906Z,21.09
2022-09-12T23:55:55.724Z,20.73
2022-09-12T23:58:57.838Z,20.54
